Time;durP1;ratioP1;P1;durP2;ratioP2;P2;SDS_P1;SDS_P2;PMS_P1;PMS_P2;Temp;Humidity;BMP_temperature;BMP_pressure;BME280_temperature;BME280_humidity;BME280_pressure;Samples;Min_cycle;Max_cycle;Signal;HPM_P1;HPM_P2
2023/05/17 00:00:52;;;;;;;14.20;2.90;;;8.00;99.90;;;;;;5078154;28;20040;-58
2023/05/17 00:03:18;;;;;;;17.98;3.50;;;8.00;99.90;;;;;;5058199;28;20404;-57
2023/05/17 00:05:43;;;;;;;16.00;3.28;;;8.00;99.90;;;;;;5078685;28;20076;-58
2023/05/17 00:08:10;;;;;;;14.68;2.55;;;8.10;99.90;;;;;;5076963;28;20052;-58
2023/05/17 00:10:35;;;;;;;21.88;3.35;;;8.10;99.90;;;;;;5078239;28;20096;-58
2023/05/17 00:13:02;;;;;;;21.02;4.68;;;8.20;99.90;;;;;;5077808;28;20056;-58
2023/05/17 00:15:28;;;;;;;17.80;3.10;;;8.10;99.90;;;;;;5076892;28;20048;-58
2023/05/17 00:17:54;;;;;;;17.60;2.92;;;8.10;99.90;;;;;;5078136;28;20056;-58
2023/05/17 00:20:20;;;;;;;20.42;3.78;;;8.20;99.90;;;;;;5058409;28;20060;-59
2023/05/17 00:22:46;;;;;;;18.73;3.00;;;8.20;99.90;;;;;;5078430;28;20045;-59
2023/05/17 00:25:12;;;;;;;22.60;3.40;;;8.20;99.90;;;;;;5042051;28;20036;-58
2023/05/17 00:27:37;;;;;;;15.98;2.55;;;8.20;99.90;;;;;;5077826;28;20044;-58
2023/05/17 00:30:04;;;;;;;17.95;3.17;;;8.30;99.90;;;;;;5077331;28;20051;-58
2023/05/17 00:32:30;;;;;;;19.40;3.42;;;8.40;99.90;;;;;;5076797;28;20593;-58
2023/05/17 00:34:56;;;;;;;27.55;3.75;;;8.40;99.90;;;;;;5080767;28;20086;-58
2023/05/17 00:37:21;;;;;;;22.30;3.53;;;8.50;99.90;;;;;;5080157;28;20094;-58
2023/05/17 00:39:47;;;;;;;14.00;3.00;;;8.60;99.90;;;;;;5082269;28;20514;-58
2023/05/17 00:42:13;;;;;;;17.17;2.70;;;8.70;99.90;;;;;;5080214;28;20113;-58
2023/05/17 00:44:39;;;;;;;21.50;3.05;;;8.80;99.90;;;;;;5081881;28;20051;-58
2023/05/17 00:47:05;;;;;;;19.25;3.13;;;8.90;99.90;;;;;;5080545;28;20051;-57
2023/05/17 00:49:31;;;;;;;19.85;3.67;;;8.80;99.90;;;;;;5080756;28;20040;-58
2023/05/17 00:51:58;;;;;;;15.60;2.55;;;8.70;99.90;;;;;;5081602;28;20078;-58
2023/05/17 00:54:25;;;;;;;16.52;3.40;;;8.70;99.90;;;;;;5080023;28;20388;-58
2023/05/17 00:56:52;;;;;;;20.85;4.50;;;8.80;99.90;;;;;;5081764;28;20044;-58
2023/05/17 00:59:18;;;;;;;19.67;3.30;;;8.80;99.90;;;;;;5061316;28;20071;-58
2023/05/17 01:01:44;;;;;;;18.05;4.18;;;8.70;99.90;;;;;;5081430;28;20041;-58
2023/05/17 01:04:10;;;;;;;18.08;3.10;;;8.70;99.90;;;;;;5062339;28;20055;-58
2023/05/17 01:06:36;;;;;;;15.07;3.28;;;8.70;99.90;;;;;;5080367;28;20045;-58
2023/05/17 01:09:03;;;;;;;17.05;2.97;;;8.50;99.90;;;;;;5081187;28;20041;-57
2023/05/17 01:11:44;;;;;;;16.65;2.20;;;8.50;99.90;;;;;;5079805;28;20070;-56
2023/05/17 01:14:33;;;;;;;23.13;3.10;;;8.40;99.90;;;;;;5063355;28;20048;-58
2023/05/17 01:17:06;;;;;;;13.18;2.90;;;8.40;99.90;;;;;;5080075;28;20045;-58
2023/05/17 01:19:44;;;;;;;;;;;8.40;99.90;;;;;;5080663;28;20393;-59
2023/05/17 01:22:30;;;;;;;17.20;3.75;;;8.40;99.90;;;;;;5081214;28;20020;-58
2023/05/17 01:25:22;;;;;;;14.02;2.53;;;8.30;99.90;;;;;;5061129;28;20063;-58
2023/05/17 01:27:50;;;;;;;16.92;2.40;;;8.30;99.90;;;;;;5080498;28;20056;-58
2023/05/17 01:30:19;;;;;;;11.82;2.40;;;8.30;99.90;;;;;;5080260;28;20109;-58
2023/05/17 01:32:46;;;;;;;14.45;3.10;;;8.30;99.90;;;;;;5079572;28;20045;-58
2023/05/17 01:35:11;;;;;;;16.63;2.83;;;8.30;99.90;;;;;;5080675;28;20052;-58
2023/05/17 01:37:40;;;;;;;16.38;2.70;;;8.20;99.90;;;;;;5078862;28;20043;-58
2023/05/17 01:40:08;;;;;;;13.00;2.55;;;8.30;99.90;;;;;;5081139;28;20040;-58
2023/05/17 01:42:38;;;;;;;14.45;2.53;;;8.20;99.90;;;;;;5079445;28;20104;-58
2023/05/17 01:45:17;;;;;;;19.40;2.45;;;8.20;99.90;;;;;;5079601;28;20103;-58
2023/05/17 01:48:08;;;;;;;11.65;2.38;;;8.20;99.90;;;;;;5080158;28;20052;-58
2023/05/17 01:50:35;;;;;;;12.38;2.00;;;8.20;99.90;;;;;;5064258;28;20079;-58
2023/05/17 01:53:04;;;;;;;14.07;2.67;;;8.10;99.90;;;;;;5080793;28;20044;-58
2023/05/17 01:55:48;;;;;;;16.05;2.30;;;8.10;99.90;;;;;;5079190;28;20359;-58
2023/05/17 01:58:15;;;;;;;12.10;2.38;;;8.10;99.90;;;;;;5078959;28;20551;-58
2023/05/17 02:00:43;;;;;;;14.68;2.35;;;8.10;99.90;;;;;;5080122;28;20404;-58
2023/05/17 02:03:17;;;;;;;14.40;2.50;;;8.00;99.90;;;;;;5078380;28;20059;-58
2023/05/17 02:05:42;;;;;;;14.02;2.70;;;8.20;99.90;;;;;;5080623;28;20048;-58
2023/05/17 02:08:08;;;;;;;8.98;2.10;;;8.20;99.90;;;;;;5078603;28;20102;-58
2023/05/17 02:10:34;;;;;;;12.30;2.65;;;8.20;99.90;;;;;;5079778;28;20128;-58
2023/05/17 02:12:59;;;;;;;14.13;2.40;;;8.20;99.90;;;;;;5079709;28;20119;-58
2023/05/17 02:15:25;;;;;;;14.27;2.20;;;8.20;99.90;;;;;;5078504;28;20174;-58
2023/05/17 02:17:51;;;;;;;13.35;2.13;;;8.30;99.90;;;;;;5080172;28;20033;-58
2023/05/17 02:20:17;;;;;;;13.43;2.90;;;8.20;99.90;;;;;;5078270;28;20049;-58
2023/05/17 02:22:42;;;;;;;13.80;2.38;;;8.30;99.90;;;;;;5080295;28;20453;-58
2023/05/17 02:25:08;;;;;;;17.42;2.35;;;8.40;99.90;;;;;;5077635;28;20086;-58
2023/05/17 02:27:35;;;;;;;14.73;2.63;;;8.40;99.90;;;;;;5061738;28;20036;-58
2023/05/17 02:30:01;;;;;;;12.98;2.30;;;8.40;99.90;;;;;;5078544;28;20048;-57
2023/05/17 02:32:27;;;;;;;17.75;2.60;;;8.40;99.90;;;;;;5078470;28;20044;-58
2023/05/17 02:34:53;;;;;;;19.15;3.30;;;8.40;99.90;;;;;;5079712;28;20057;-58
2023/05/17 02:37:19;;;;;;;17.58;2.80;;;8.40;99.90;;;;;;5077528;28;20086;-58
2023/05/17 02:39:45;;;;;;;18.63;4.15;;;8.40;99.90;;;;;;5079524;28;20037;-58
2023/05/17 02:42:10;;;;;;;12.90;2.70;;;8.40;99.90;;;;;;5077610;28;20041;-58
2023/05/17 02:44:36;;;;;;;13.95;2.30;;;8.40;99.90;;;;;;5079758;28;20044;-58
2023/05/17 02:47:02;;;;;;;14.23;2.20;;;8.40;99.90;;;;;;5078585;28;20102;-57
2023/05/17 02:49:28;;;;;;;14.50;2.47;;;8.30;99.90;;;;;;5078283;28;20068;-58
2023/05/17 02:51:53;;;;;;;12.13;2.45;;;8.30;99.90;;;;;;5079348;28;20596;-59
2023/05/17 02:54:19;;;;;;;14.38;2.75;;;8.30;99.90;;;;;;5077237;28;20051;-58
2023/05/17 02:56:45;;;;;;;17.23;2.17;;;8.20;99.90;;;;;;5078969;28;20047;-59
2023/05/17 02:59:10;;;;;;;17.55;2.65;;;8.20;99.90;;;;;;5077049;28;20080;-58
2023/05/17 03:01:36;;;;;;;14.73;2.30;;;8.10;99.90;;;;;;5061391;28;20127;-58
2023/05/17 03:04:01;;;;;;;15.25;2.40;;;8.10;99.90;;;;;;5077925;28;20044;-58
2023/05/17 03:06:27;;;;;;;17.45;2.33;;;8.00;99.90;;;;;;5078150;28;20033;-57
2023/05/17 03:08:53;;;;;;;13.45;2.20;;;8.00;99.90;;;;;;5060763;28;20093;-57
2023/05/17 03:11:19;;;;;;;11.55;1.98;;;8.00;99.90;;;;;;5077403;28;20515;-58
2023/05/17 03:13:45;;;;;;;12.18;2.20;;;7.90;99.90;;;;;;5079158;28;20377;-58
2023/05/17 03:16:11;;;;;;;11.88;2.00;;;8.00;99.90;;;;;;5059220;28;20091;-58
2023/05/17 03:18:36;;;;;;;11.68;2.45;;;8.00;99.90;;;;;;5079155;28;20052;-58
2023/05/17 03:21:02;;;;;;;10.90;2.03;;;8.00;99.90;;;;;;5077404;28;20045;-58
2023/05/17 03:23:28;;;;;;;13.10;1.92;;;8.00;99.90;;;;;;5078531;28;20445;-57
2023/05/17 03:25:53;;;;;;;11.90;1.83;;;8.00;99.90;;;;;;5078366;28;20048;-57
2023/05/17 03:28:19;;;;;;;10.05;1.90;;;8.00;99.90;;;;;;5076929;28;20084;-58
2023/05/17 03:30:45;;;;;;;8.20;1.20;;;8.10;99.90;;;;;;5078396;28;20053;-58
2023/05/17 03:33:11;;;;;;;13.23;2.35;;;8.10;99.90;;;;;;5076736;28;20071;-58
2023/05/17 03:35:37;;;;;;;8.05;1.20;;;8.10;99.90;;;;;;5060887;28;20044;-60
2023/05/17 03:38:02;;;;;;;9.60;1.30;;;8.20;99.90;;;;;;5076625;28;20045;-58
2023/05/17 03:40:28;;;;;;;12.93;2.35;;;8.20;99.90;;;;;;5078435;28;20419;-58
2023/05/17 03:42:53;;;;;;;10.15;1.88;;;8.10;99.90;;;;;;5077904;28;20075;-58
2023/05/17 03:45:19;;;;;;;10.80;2.13;;;8.10;99.90;;;;;;5077202;28;20040;-58
2023/05/17 03:47:45;;;;;;;9.60;1.65;;;8.20;99.90;;;;;;5060476;28;20060;-58
2023/05/17 03:50:11;;;;;;;6.50;1.50;;;8.20;99.90;;;;;;5076758;28;20044;-58
2023/05/17 03:52:36;;;;;;;8.55;1.35;;;8.20;99.90;;;;;;5078693;28;20044;-58
2023/05/17 03:55:02;;;;;;;9.30;1.48;;;8.20;99.90;;;;;;5076617;28;20479;-58
2023/05/17 03:57:28;;;;;;;8.63;1.40;;;8.10;99.90;;;;;;5060499;28;20427;-58
2023/05/17 03:59:54;;;;;;;10.00;1.67;;;8.10;99.90;;;;;;5077348;28;20124;-56
2023/05/17 04:02:19;;;;;;;7.22;1.40;;;8.10;99.90;;;;;;5077357;28;20051;-58
2023/05/17 04:04:49;;;;;;;10.80;1.40;;;8.00;99.90;;;;;;5078122;28;20045;-58
2023/05/17 04:07:15;;;;;;;11.68;1.70;;;8.10;99.90;;;;;;5076516;28;20074;-58
2023/05/17 04:09:41;;;;;;;10.93;1.60;;;8.00;99.90;;;;;;5082437;28;20131;-58
2023/05/17 04:12:07;;;;;;;10.50;1.55;;;8.10;99.90;;;;;;5080716;28;20335;-58
2023/05/17 04:14:33;;;;;;;9.05;1.30;;;7.90;99.90;;;;;;5082469;28;20057;-55
2023/05/17 04:16:59;;;;;;;9.95;1.52;;;8.00;99.90;;;;;;5081355;28;20049;-57
2023/05/17 04:19:24;;;;;;;10.25;1.38;;;8.10;99.90;;;;;;5081216;28;20040;-59
2023/05/17 04:21:50;;;;;;;9.35;1.23;;;8.00;99.90;;;;;;5081763;28;20064;-58
2023/05/17 04:24:16;;;;;;;9.48;1.20;;;8.00;99.90;;;;;;5045890;28;20051;-58
2023/05/17 04:26:43;;;;;;;15.43;1.92;;;8.10;99.90;;;;;;5082320;28;20052;-58
2023/05/17 04:29:09;;;;;;;7.32;1.25;;;8.10;99.90;;;;;;5080151;28;20048;-58
2023/05/17 04:31:34;;;;;;;8.77;1.45;;;8.10;99.90;;;;;;5082075;28;20102;-58
2023/05/17 04:34:01;;;;;;;9.25;1.42;;;8.10;99.90;;;;;;5080814;28;20051;-58
2023/05/17 04:36:27;;;;;;;8.38;1.40;;;8.10;99.90;;;;;;5081059;28;20057;-59
2023/05/17 04:38:52;;;;;;;12.77;1.73;;;8.20;99.90;;;;;;5081751;28;20190;-58
2023/05/17 04:41:18;;;;;;;8.45;1.20;;;8.20;99.90;;;;;;5080134;28;20103;-59
2023/05/17 04:43:44;;;;;;;7.68;1.00;;;8.20;99.90;;;;;;5081608;28;20496;-58
2023/05/17 04:46:10;;;;;;;8.25;1.30;;;8.20;99.90;;;;;;5079891;28;20052;-58
2023/05/17 04:48:37;;;;;;;6.63;1.20;;;8.30;99.90;;;;;;5081896;28;20624;-57
2023/05/17 04:51:03;;;;;;;8.13;1.60;;;8.20;99.90;;;;;;5062612;28;20056;-58
2023/05/17 04:53:30;;;;;;;10.20;1.35;;;8.20;99.90;;;;;;5063017;28;20045;-58
2023/05/17 04:55:58;;;;;;;6.97;1.40;;;8.20;99.90;;;;;;5081238;28;20043;-58
2023/05/17 04:58:24;;;;;;;9.13;1.83;;;8.40;99.90;;;;;;5079862;28;20052;-58
2023/05/17 05:00:51;;;;;;;9.27;1.70;;;8.40;99.90;;;;;;5081237;28;20040;-57
2023/05/17 05:03:17;;;;;;;10.85;1.52;;;8.40;99.90;;;;;;5061615;28;20044;-57
2023/05/17 05:05:43;;;;;;;9.32;1.67;;;8.40;99.90;;;;;;5081491;28;20045;-55
2023/05/17 05:08:09;;;;;;;8.18;1.33;;;8.40;99.90;;;;;;5079904;28;20047;-58
2023/05/17 05:10:35;;;;;;;12.38;2.33;;;8.40;99.90;;;;;;5080730;28;20067;-58
2023/05/17 05:13:01;;;;;;;12.85;2.00;;;8.40;99.90;;;;;;5081018;28;20049;-58
2023/05/17 05:15:26;;;;;;;7.97;1.88;;;8.40;99.90;;;;;;5079506;28;20672;-58
2023/05/17 05:17:52;;;;;;;10.70;1.63;;;8.30;99.90;;;;;;5081137;28;20044;-58
2023/05/17 05:20:18;;;;;;;11.93;1.88;;;8.40;99.90;;;;;;5078458;28;20069;-58
2023/05/17 05:22:43;;;;;;;14.85;2.03;;;8.40;99.90;;;;;;5081499;28;20044;-58
2023/05/17 05:25:09;;;;;;;10.50;1.80;;;8.50;99.90;;;;;;5079139;28;20066;-58
2023/05/17 05:27:35;;;;;;;12.52;1.80;;;8.60;99.90;;;;;;5080595;28;20097;-58
2023/05/17 05:30:01;;;;;;;15.50;2.22;;;8.70;99.90;;;;;;5079937;28;20056;-58
2023/05/17 05:32:27;;;;;;;15.63;2.15;;;8.70;99.90;;;;;;5079428;28;20053;-58
2023/05/17 05:34:52;;;;;;;9.38;1.88;;;8.80;99.90;;;;;;5080783;28;20048;-58
2023/05/17 05:37:18;;;;;;;17.05;2.17;;;8.90;99.90;;;;;;5078758;28;20128;-57
2023/05/17 05:39:45;;;;;;;7.53;1.30;;;9.00;99.90;;;;;;5081207;28;20040;-58
2023/05/17 05:42:10;;;;;;;10.32;2.08;;;9.10;99.90;;;;;;5078926;28;20048;-58
2023/05/17 05:44:36;;;;;;;11.57;2.08;;;9.10;99.90;;;;;;5080473;28;20052;-59
2023/05/17 05:47:03;;;;;;;8.10;1.85;;;9.10;99.90;;;;;;5061453;28;20049;-58
2023/05/17 05:49:29;;;;;;;12.00;2.20;;;9.20;99.90;;;;;;5079424;28;20086;-58
2023/05/17 05:51:58;;;;;;;13.63;4.03;;;9.20;99.90;;;;;;5080709;28;20040;-58
2023/05/17 05:54:24;;;;;;;11.10;2.17;;;9.10;99.90;;;;;;5078610;28;20055;-58
2023/05/17 05:56:50;;;;;;;11.45;2.35;;;8.90;99.90;;;;;;5080770;28;20092;-58
2023/05/17 05:59:15;;;;;;;12.50;1.90;;;8.90;99.90;;;;;;5043954;28;20528;-58
2023/05/17 06:01:42;;;;;;;16.63;2.65;;;9.00;99.90;;;;;;5080262;28;20068;-58
2023/05/17 06:04:08;;;;;;;14.25;1.90;;;9.00;99.90;;;;;;5079306;28;20040;-58
2023/05/17 06:06:34;;;;;;;15.85;2.05;;;8.90;99.90;;;;;;5078814;28;20060;-58
2023/05/17 06:09:00;;;;;;;9.80;1.55;;;8.80;99.90;;;;;;5080215;28;20039;-58
2023/05/17 06:11:25;;;;;;;15.18;1.88;;;8.80;99.90;;;;;;5078479;28;20104;-58
2023/05/17 06:13:51;;;;;;;14.07;1.95;;;8.80;99.90;;;;;;5062240;28;20090;-58
2023/05/17 06:16:17;;;;;;;14.55;2.75;;;8.80;99.90;;;;;;5060010;28;20123;-58
2023/05/17 06:18:42;;;;;;;13.00;1.92;;;8.80;99.90;;;;;;5080020;28;20047;-57
2023/05/17 06:21:08;;;;;;;12.20;2.35;;;8.80;99.90;;;;;;5078868;28;20040;-58
2023/05/17 06:23:34;;;;;;;18.85;2.58;;;8.80;99.90;;;;;;5078921;28;20048;-58
2023/05/17 06:25:59;;;;;;;12.15;2.10;;;8.80;99.90;;;;;;5079937;28;20100;-58
2023/05/17 06:28:25;;;;;;;13.90;2.05;;;8.90;99.90;;;;;;5059457;28;20479;-58
2023/05/17 06:30:51;;;;;;;11.88;2.67;;;9.00;99.90;;;;;;5078767;28;20060;-58
2023/05/17 06:33:16;;;;;;;9.50;1.73;;;9.00;99.90;;;;;;5077458;28;20041;-57
2023/05/17 06:35:42;;;;;;;47.88;5.78;;;8.90;99.90;;;;;;5079988;28;20041;-58
2023/05/17 06:38:08;;;;;;;16.33;3.05;;;9.00;99.90;;;;;;5078323;28;20064;-57
2023/05/17 06:40:33;;;;;;;15.18;2.45;;;8.90;99.90;;;;;;5060896;28;20112;-58
2023/05/17 06:43:01;;;;;;;12.75;1.80;;;9.00;99.90;;;;;;5079144;28;20033;-58
2023/05/17 06:45:27;;;;;;;16.00;3.33;;;9.10;99.90;;;;;;5059934;28;20063;-58
2023/05/17 06:47:52;;;;;;;16.98;4.22;;;9.10;99.90;;;;;;5079365;28;20040;-58
2023/05/17 06:50:18;;;;;;;12.27;3.70;;;9.20;99.90;;;;;;5077315;28;20032;-58
2023/05/17 06:52:44;;;;;;;12.40;1.95;;;9.20;99.90;;;;;;5079657;28;20040;-58
2023/05/17 06:55:09;;;;;;;15.40;2.60;;;9.30;99.90;;;;;;5077879;28;20062;-58
2023/05/17 06:57:36;;;;;;;53.60;6.22;;;9.40;99.90;;;;;;5078699;28;20126;-58
2023/05/17 07:00:05;;;;;;;17.58;2.42;;;9.50;99.90;;;;;;5060355;28;20074;-58
2023/05/17 07:02:31;;;;;;;11.73;1.95;;;9.50;99.90;;;;;;5077658;28;20050;-58
2023/05/17 07:04:57;;;;;;;63.75;8.90;;;9.50;99.90;;;;;;5079254;28;20051;-58
2023/05/17 07:07:22;;;;;;;12.00;2.53;;;9.50;99.90;;;;;;5077016;28;20044;-58
2023/05/17 07:09:48;;;;;;;20.50;3.95;;;9.50;99.90;;;;;;5079429;28;20045;-58
2023/05/17 07:12:14;;;;;;;14.18;2.58;;;9.50;99.90;;;;;;5077359;28;20040;-56
2023/05/17 07:14:39;;;;;;;12.52;2.30;;;9.60;99.90;;;;;;5078733;28;20064;-58
2023/05/17 07:17:05;;;;;;;13.25;1.80;;;9.60;99.90;;;;;;5078098;28;20531;-58
2023/05/17 07:19:31;;;;;;;10.73;1.60;;;9.60;99.90;;;;;;5059498;28;20655;-58
2023/05/17 07:21:57;;;;;;;13.77;2.42;;;10.00;99.90;;;;;;5078851;28;20049;-59
2023/05/17 07:24:22;;;;;;;11.30;2.25;;;10.00;99.90;;;;;;5076752;28;20060;-58
2023/05/17 07:26:48;;;;;;;14.68;2.25;;;9.90;99.90;;;;;;5079285;28;20117;-58
2023/05/17 07:29:13;;;;;;;9.85;1.75;;;9.90;99.90;;;;;;5076433;28;20044;-58
2023/05/17 07:31:39;;;;;;;11.75;2.20;;;10.00;99.90;;;;;;5078771;28;20060;-58
2023/05/17 07:34:05;;;;;;;12.93;2.15;;;10.00;99.90;;;;;;5077865;28;20074;-58
2023/05/17 07:36:31;;;;;;;11.30;2.45;;;10.10;99.90;;;;;;5077557;28;20067;-58
2023/05/17 07:38:56;;;;;;;11.32;1.75;;;10.20;99.90;;;;;;5078364;28;20040;-58
2023/05/17 07:41:22;;;;;;;11.90;2.15;;;10.30;99.90;;;;;;5076563;28;20059;-58
2023/05/17 07:43:49;;;;;;;12.00;1.63;;;10.40;99.90;;;;;;5078517;28;20045;-58
2023/05/17 07:46:15;;;;;;;13.35;2.08;;;10.50;99.90;;;;;;5076624;28;20079;-58
2023/05/17 07:48:41;;;;;;;16.58;2.40;;;10.40;99.90;;;;;;5078790;28;20048;-58
2023/05/17 07:51:06;;;;;;;11.35;2.47;;;10.20;99.90;;;;;;5059546;28;20111;-58
2023/05/17 07:53:32;;;;;;;12.85;2.40;;;10.30;99.90;;;;;;5077523;28;20048;-58
2023/05/17 07:55:58;;;;;;;16.25;2.22;;;10.20;99.90;;;;;;5078081;28;20052;-58
2023/05/17 07:58:23;;;;;;;11.05;2.22;;;10.30;99.90;;;;;;5076816;28;20428;-58
2023/05/17 08:00:49;;;;;;;16.00;2.65;;;10.20;99.90;;;;;;5060288;28;20391;-58
2023/05/17 08:03:15;;;;;;;15.85;2.35;;;10.20;99.90;;;;;;5076350;28;20040;-58
2023/05/17 08:05:40;;;;;;;11.15;2.38;;;10.20;99.90;;;;;;5060646;28;20044;-57
2023/05/17 08:08:06;;;;;;;14.00;2.30;;;10.30;99.90;;;;;;5076907;28;20255;-58
2023/05/17 08:10:34;;;;;;;9.23;1.67;;;10.40;99.90;;;;;;5077919;28;20049;-57
2023/05/17 08:13:00;;;;;;;8.82;1.75;;;10.50;99.90;;;;;;5077621;28;20110;-58
2023/05/17 08:15:26;;;;;;;10.77;2.28;;;10.40;99.90;;;;;;5076730;28;20056;-58
2023/05/17 08:17:51;;;;;;;11.77;1.92;;;10.40;99.90;;;;;;5078277;28;20371;-57
2023/05/17 08:20:17;;;;;;;8.88;1.65;;;10.60;99.90;;;;;;5076486;28;20052;-58
2023/05/17 08:22:43;;;;;;;10.88;1.65;;;10.80;99.90;;;;;;5078312;28;20055;-57
2023/05/17 08:25:09;;;;;;;10.25;1.88;;;10.60;99.90;;;;;;5058730;28;20048;-57
2023/05/17 08:27:35;;;;;;;10.88;2.50;;;10.50;99.90;;;;;;5077676;28;20555;-58
2023/05/17 08:30:01;;;;;;;11.25;1.60;;;10.50;99.90;;;;;;5077063;28;20056;-57
2023/05/17 08:32:27;;;;;;;9.80;2.10;;;10.70;99.90;;;;;;5058890;28;20390;-58
2023/05/17 08:34:53;;;;;;;12.55;2.13;;;10.80;99.90;;;;;;5077869;28;20129;-56
2023/05/17 08:37:19;;;;;;;8.15;1.58;;;10.70;99.90;;;;;;5076324;28;20076;-58
2023/05/17 08:39:44;;;;;;;12.60;1.70;;;10.80;99.90;;;;;;5078329;28;20091;-58
2023/05/17 08:42:10;;;;;;;10.15;1.80;;;10.50;99.90;;;;;;5076485;28;20047;-58
2023/05/17 08:44:37;;;;;;;10.40;1.85;;;10.80;99.90;;;;;;5077758;28;20137;-58
2023/05/17 08:47:03;;;;;;;9.73;1.52;;;10.50;99.90;;;;;;5059323;28;20083;-57
2023/05/17 08:49:32;;;;;;;9.25;1.98;;;10.50;99.90;;;;;;5076683;28;20044;-57
2023/05/17 08:51:59;;;;;;;12.10;2.40;;;10.60;99.90;;;;;;5078064;28;20056;-57
2023/05/17 08:54:25;;;;;;;10.70;2.00;;;10.70;99.90;;;;;;5076176;28;20048;-58
2023/05/17 08:56:57;;;;;;;11.13;1.50;;;10.80;99.90;;;;;;5081569;28;20056;-58
2023/05/17 08:59:25;;;;;;;9.00;1.50;;;10.80;99.90;;;;;;5061493;28;20058;-58
2023/05/17 09:01:52;;;;;;;8.25;1.45;;;10.90;99.90;;;;;;5062926;28;20515;-58
2023/05/17 09:04:18;;;;;;;7.75;1.70;;;11.10;99.90;;;;;;5080564;28;20051;-57
2023/05/17 09:06:44;;;;;;;8.02;1.55;;;11.00;99.90;;;;;;5079840;28;20045;-57
2023/05/17 09:09:10;;;;;;;6.55;1.15;;;11.10;99.90;;;;;;5081162;28;20535;-58
2023/05/17 09:11:36;;;;;;;7.10;1.40;;;11.10;99.90;;;;;;5079086;28;20484;-57
2023/05/17 09:14:06;;;;;;;6.53;1.38;;;11.00;99.90;;;;;;5081322;28;20132;-58
2023/05/17 09:16:36;;;;;;;10.13;2.95;;;11.30;99.90;;;;;;5079438;28;20051;-58
2023/05/17 09:19:04;;;;;;;7.65;2.17;;;11.10;99.90;;;;;;5080737;28;20051;-57
2023/05/17 09:21:30;;;;;;;8.18;1.25;;;11.00;99.90;;;;;;5080663;28;20048;-58
2023/05/17 09:24:00;;;;;;;8.25;1.77;;;11.20;99.90;;;;;;5079350;28;20463;-58
2023/05/17 09:26:40;;;;;;;9.25;1.25;;;11.20;99.90;;;;;;5081012;28;20047;-59
2023/05/17 09:29:10;;;;;;;10.10;1.73;;;11.30;99.90;;;;;;5079237;28;20068;-58
2023/05/17 09:31:37;;;;;;;5.60;1.10;;;11.00;99.90;;;;;;5080554;28;20174;-58
2023/05/17 09:34:02;;;;;;;9.73;2.17;;;11.20;99.90;;;;;;5062016;28;20052;-57
2023/05/17 09:36:28;;;;;;;7.38;1.40;;;11.40;99.90;;;;;;5061294;28;20053;-58
2023/05/17 09:39:04;;;;;;;6.72;1.80;;;11.50;99.90;;;;;;5062808;28;20048;-58
2023/05/17 09:41:41;;;;;;;7.95;1.45;;;11.80;99.90;;;;;;5078851;28;20068;-58
2023/05/17 09:44:10;;;;;;;8.27;1.88;;;11.30;99.90;;;;;;5080739;28;20036;-58
2023/05/17 09:46:40;;;;;;;7.35;1.30;;;11.00;99.90;;;;;;5078870;28;20106;-58
2023/05/17 09:49:08;;;;;;;9.07;1.73;;;11.10;99.90;;;;;;5079670;28;20124;-58
2023/05/17 09:51:41;;;;;;;7.43;1.40;;;11.50;99.90;;;;;;5079901;28;20092;-58
2023/05/17 09:54:08;;;;;;;8.85;1.63;;;11.50;99.90;;;;;;5078913;28;20064;-58
2023/05/17 09:56:35;;;;;;;9.02;1.17;;;11.80;99.90;;;;;;5080716;28;20051;-58
2023/05/17 09:59:02;;;;;;;22.70;2.90;;;11.50;99.90;;;;;;5078907;28;20163;-58
2023/05/17 10:01:30;;;;;;;8.90;1.90;;;11.30;99.90;;;;;;5061875;28;20086;-58
2023/05/17 10:04:01;;;;;;;7.85;1.55;;;11.20;99.90;;;;;;5061117;28;20039;-58
2023/05/17 10:06:29;;;;;;;10.60;1.67;;;11.20;99.90;;;;;;5078779;28;20041;-57
2023/05/17 10:08:56;;;;;;;9.02;1.50;;;11.20;99.90;;;;;;5079876;28;20088;-58
2023/05/17 10:11:32;;;;;;;8.98;1.70;;;11.30;99.90;;;;;;5078490;28;20040;-58
2023/05/17 10:14:10;;;;;;;6.90;1.08;;;11.20;99.90;;;;;;5080185;28;20070;-58
2023/05/17 10:16:37;;;;;;;8.00;1.45;;;11.50;99.90;;;;;;5078699;28;20051;-57
2023/05/17 10:19:03;;;;;;;8.90;1.30;;;11.70;99.90;;;;;;5079030;28;20070;-57
2023/05/17 10:21:32;;;;;;;8.57;1.52;;;11.70;99.90;;;;;;5079676;28;20040;-58
2023/05/17 10:24:02;;;;;;;9.30;1.85;;;12.00;99.90;;;;;;5060427;28;20056;-57
2023/05/17 10:26:28;;;;;;;8.60;1.25;;;12.10;99.90;;;;;;5079539;28;20072;-58
2023/05/17 10:29:00;;;;;;;8.43;1.15;;;12.20;99.90;;;;;;5077697;28;20059;-57
2023/05/17 10:31:32;;;;;;;11.73;1.75;;;12.10;99.90;;;;;;5079162;28;20056;-58
2023/05/17 10:34:00;;;;;;;10.02;1.77;;;12.00;99.90;;;;;;5060912;28;20060;-58
2023/05/17 10:36:25;;;;;;;8.90;1.75;;;11.70;99.90;;;;;;5060618;28;20040;-58
2023/05/17 10:38:52;;;;;;;10.27;1.95;;;11.70;99.90;;;;;;5079521;28;20078;-58
2023/05/17 10:41:24;;;;;;;11.13;1.73;;;11.80;99.90;;;;;;5077494;28;20044;-57
2023/05/17 10:43:52;;;;;;;10.60;1.77;;;11.90;99.90;;;;;;5079564;28;20052;-58
2023/05/17 10:46:21;;;;;;;8.88;1.60;;;12.00;99.90;;;;;;5077681;28;20495;-58
2023/05/17 10:48:51;;;;;;;10.13;1.75;;;12.10;99.90;;;;;;5079231;28;20063;-58
2023/05/17 10:51:25;;;;;;;8.88;1.65;;;11.70;99.90;;;;;;5060591;28;20672;-57
2023/05/17 10:54:17;;;;;;;8.85;1.60;;;11.80;99.90;;;;;;5077789;28;20057;-57
2023/05/17 10:56:50;;;;;;;7.75;1.38;;;11.50;99.90;;;;;;5061356;28;20055;-58
2023/05/17 10:59:22;;;;;;;8.82;1.40;;;12.00;99.90;;;;;;5077508;28;20052;-58
2023/05/17 11:01:51;;;;;;;12.00;1.93;;;12.40;99.90;;;;;;5078604;28;20112;-58
2023/05/17 11:04:26;;;;;;;8.55;1.45;;;11.60;99.90;;;;;;5060602;28;20056;-58
2023/05/17 11:07:17;;;;;;;8.63;1.70;;;11.70;99.90;;;;;;5077563;28;20048;-58
2023/05/17 11:10:06;;;;;;;12.15;1.73;;;11.80;99.90;;;;;;5079300;28;20068;-58
2023/05/17 11:12:36;;;;;;;7.78;2.03;;;12.10;99.90;;;;;;5078285;28;20040;-57
2023/05/17 11:15:06;;;;;;;9.20;1.80;;;12.50;99.90;;;;;;5077752;28;20512;-58
2023/05/17 11:17:42;;;;;;;9.48;1.55;;;12.30;99.90;;;;;;5078290;28;20049;-57
2023/05/17 11:20:15;;;;;;;8.05;2.00;;;11.90;99.90;;;;;;5077153;28;20189;-58
2023/05/17 11:22:49;;;;;;;8.73;2.08;;;11.80;99.90;;;;;;5078845;28;20573;-58
2023/05/17 11:25:15;;;;;;;13.30;2.00;;;11.90;99.90;;;;;;5077771;28;20041;-57
2023/05/17 11:27:45;;;;;;;11.07;2.45;;;11.90;99.90;;;;;;5077758;28;20075;-58
2023/05/17 11:30:27;;;;;;;11.27;1.80;;;12.10;99.90;;;;;;5078462;28;20063;-57
2023/05/17 11:32:58;;;;;;;9.98;1.83;;;11.90;99.80;;;;;;5076649;28;20051;-58
2023/05/17 11:35:26;;;;;;;7.28;1.88;;;12.00;99.90;;;;;;5078983;28;20064;-58
2023/05/17 11:38:00;;;;;;;13.90;1.95;;;11.90;98.90;;;;;;5077176;28;20082;-58
2023/05/17 11:40:26;;;;;;;8.63;1.50;;;11.90;99.90;;;;;;5077910;28;20085;-58
2023/05/17 11:43:16;;;;;;;12.82;2.50;;;12.00;99.80;;;;;;5078272;28;20051;-58
2023/05/17 11:45:50;;;;;;;9.38;1.63;;;12.20;98.80;;;;;;5076428;28;20060;-58
2023/05/17 11:48:17;;;;;;;9.05;1.73;;;11.80;99.20;;;;;;5078803;28;20051;-58
2023/05/17 11:50:45;;;;;;;9.32;1.85;;;11.80;99.90;;;;;;5076861;28;20047;-58
2023/05/17 11:53:11;;;;;;;7.20;1.40;;;12.20;99.40;;;;;;5078045;28;20033;-57
2023/05/17 11:55:49;;;;;;;10.38;2.25;;;12.50;98.50;;;;;;5078180;28;20045;-58
2023/05/17 11:58:17;;;;;;;7.40;1.50;;;12.10;96.90;;;;;;5076886;28;20048;-58
2023/05/17 12:00:43;;;;;;;8.13;1.42;;;12.10;98.90;;;;;;5078445;28;20040;-58
2023/05/17 12:03:20;;;;;;;9.45;1.40;;;12.40;98.70;;;;;;5076465;28;20040;-58
2023/05/17 12:05:48;;;;;;;10.10;1.83;;;12.60;98.00;;;;;;5078359;28;20080;-58
2023/05/17 12:08:18;;;;;;;9.68;1.85;;;12.50;98.50;;;;;;5077490;28;20049;-57
2023/05/17 12:10:49;;;;;;;9.88;1.88;;;12.80;98.40;;;;;;5076879;28;20053;-58
2023/05/17 12:13:15;;;;;;;7.80;1.73;;;12.90;97.10;;;;;;5078369;28;20040;-57
2023/05/17 12:15:44;;;;;;;6.20;1.40;;;12.80;98.10;;;;;;5076254;28;20103;-58
2023/05/17 12:18:10;;;;;;;6.82;2.03;;;12.50;98.10;;;;;;5078619;28;20076;-57
2023/05/17 12:20:37;;;;;;;9.30;1.73;;;12.30;97.30;;;;;;5076179;28;20119;-58
2023/05/17 12:23:03;;;;;;;8.77;1.63;;;12.20;98.30;;;;;;5077706;28;20045;-58
2023/05/17 12:25:29;;;;;;;7.43;1.63;;;12.60;98.30;;;;;;5077522;28;20095;-58
2023/05/17 12:28:16;;;;;;;9.52;1.70;;;13.00;98.30;;;;;;5076826;28;20075;-57
2023/05/17 12:30:42;;;;;;;6.85;1.77;;;12.90;97.50;;;;;;5080234;28;20096;-56
2023/05/17 12:33:08;;;;;;;11.02;2.10;;;12.60;96.40;;;;;;5079952;28;20071;-58
2023/05/17 12:35:34;;;;;;;9.05;1.88;;;12.60;96.80;;;;;;5082113;28;20048;-58
2023/05/17 12:38:00;;;;;;;8.85;1.50;;;12.90;97.20;;;;;;5080423;28;20059;-57
2023/05/17 12:40:26;;;;;;;9.48;1.30;;;12.60;97.70;;;;;;5081396;28;20044;-59
2023/05/17 12:43:02;;;;;;;7.20;1.42;;;12.70;97.30;;;;;;5081587;28;20051;-59
2023/05/17 12:45:28;;;;;;;11.13;1.90;;;12.50;98.20;;;;;;5080083;28;20040;-58
2023/05/17 12:47:53;;;;;;;10.48;1.65;;;12.40;97.50;;;;;;5081774;28;20102;-58